sensor_id;sensor_type;location;lat;lon;timestamp;P1;durP1;ratioP1;P2;durP2;ratioP2
22240;SDS011;11289;52.524;13.694;2022-10-24T00:02:16;10.15;;;7.80;;
22240;SDS011;11289;52.524;13.694;2022-10-24T00:04:41;9.85;;;7.40;;
22240;SDS011;11289;52.524;13.694;2022-10-24T00:07:07;8.77;;;7.10;;
22240;SDS011;11289;52.524;13.694;2022-10-24T00:09:34;9.88;;;7.30;;
22240;SDS011;11289;52.524;13.694;2022-10-24T00:11:59;11.80;;;7.30;;
22240;SDS011;11289;52.524;13.694;2022-10-24T00:14:25;10.85;;;7.53;;
22240;SDS011;11289;52.524;13.694;2022-10-24T00:16:51;9.75;;;6.95;;
22240;SDS011;11289;52.524;13.694;2022-10-24T00:19:16;12.10;;;7.35;;
22240;SDS011;11289;52.524;13.694;2022-10-24T00:21:42;10.50;;;7.32;;
22240;SDS011;11289;52.524;13.694;2022-10-24T00:24:07;10.55;;;7.13;;
22240;SDS011;11289;52.524;13.694;2022-10-24T00:26:36;9.88;;;6.82;;
22240;SDS011;11289;52.524;13.694;2022-10-24T00:29:01;10.82;;;6.75;;
22240;SDS011;11289;52.524;13.694;2022-10-24T00:31:27;10.88;;;6.60;;
22240;SDS011;11289;52.524;13.694;2022-10-24T00:33:53;11.40;;;7.28;;
22240;SDS011;11289;52.524;13.694;2022-10-24T00:36:21;12.05;;;7.20;;
22240;SDS011;11289;52.524;13.694;2022-10-24T00:38:48;11.52;;;6.90;;
22240;SDS011;11289;52.524;13.694;2022-10-24T00:41:14;8.35;;;6.85;;
22240;SDS011;11289;52.524;13.694;2022-10-24T00:43:45;9.48;;;7.13;;
22240;SDS011;11289;52.524;13.694;2022-10-24T00:46:10;9.85;;;7.60;;
22240;SDS011;11289;52.524;13.694;2022-10-24T00:48:41;11.70;;;7.25;;
22240;SDS011;11289;52.524;13.694;2022-10-24T00:51:20;9.38;;;6.55;;
22240;SDS011;11289;52.524;13.694;2022-10-24T00:53:51;10.88;;;6.82;;
22240;SDS011;11289;52.524;13.694;2022-10-24T00:56:20;11.10;;;7.32;;
22240;SDS011;11289;52.524;13.694;2022-10-24T00:58:49;12.05;;;7.45;;
22240;SDS011;11289;52.524;13.694;2022-10-24T01:01:17;8.95;;;6.72;;
22240;SDS011;11289;52.524;13.694;2022-10-24T01:03:43;10.38;;;7.70;;
22240;SDS011;11289;52.524;13.694;2022-10-24T01:14:36;11.68;;;7.13;;
22240;SDS011;11289;52.524;13.694;2022-10-24T01:17:20;9.60;;;7.40;;
22240;SDS011;11289;52.524;13.694;2022-10-24T01:20:00;12.73;;;7.85;;
22240;SDS011;11289;52.524;13.694;2022-10-24T01:25:14;11.40;;;7.50;;
22240;SDS011;11289;52.524;13.694;2022-10-24T01:30:47;12.88;;;6.97;;
22240;SDS011;11289;52.524;13.694;2022-10-24T01:33:21;12.32;;;7.20;;
22240;SDS011;11289;52.524;13.694;2022-10-24T01:36:05;9.35;;;6.85;;
22240;SDS011;11289;52.524;13.694;2022-10-24T01:41:18;12.13;;;7.45;;
22240;SDS011;11289;52.524;13.694;2022-10-24T01:48:50;8.60;;;6.47;;
22240;SDS011;11289;52.524;13.694;2022-10-24T01:51:21;10.32;;;6.35;;
22240;SDS011;11289;52.524;13.694;2022-10-24T01:53:50;11.32;;;7.10;;
22240;SDS011;11289;52.524;13.694;2022-10-24T01:56:16;11.02;;;7.30;;
22240;SDS011;11289;52.524;13.694;2022-10-24T01:58:42;10.07;;;6.53;;
22240;SDS011;11289;52.524;13.694;2022-10-24T02:01:09;9.35;;;6.82;;
22240;SDS011;11289;52.524;13.694;2022-10-24T02:03:50;8.70;;;6.60;;
22240;SDS011;11289;52.524;13.694;2022-10-24T02:06:20;7.90;;;6.43;;
22240;SDS011;11289;52.524;13.694;2022-10-24T02:08:53;7.40;;;6.25;;
22240;SDS011;11289;52.524;13.694;2022-10-24T02:11:22;11.10;;;6.50;;
22240;SDS011;11289;52.524;13.694;2022-10-24T02:13:50;9.15;;;6.32;;
22240;SDS011;11289;52.524;13.694;2022-10-24T02:16:21;11.70;;;6.22;;
22240;SDS011;11289;52.524;13.694;2022-10-24T02:18:47;9.15;;;6.47;;
22240;SDS011;11289;52.524;13.694;2022-10-24T02:28:59;9.00;;;6.25;;
22240;SDS011;11289;52.524;13.694;2022-10-24T02:31:30;9.13;;;5.82;;
22240;SDS011;11289;52.524;13.694;2022-10-24T02:33:59;8.27;;;6.30;;
22240;SDS011;11289;52.524;13.694;2022-10-24T02:36:26;7.40;;;6.22;;
22240;SDS011;11289;52.524;13.694;2022-10-24T02:38:54;7.28;;;5.13;;
22240;SDS011;11289;52.524;13.694;2022-10-24T02:41:25;8.25;;;6.22;;
22240;SDS011;11289;52.524;13.694;2022-10-24T02:43:54;8.73;;;6.32;;
22240;SDS011;11289;52.524;13.694;2022-10-24T02:46:21;7.30;;;6.00;;
22240;SDS011;11289;52.524;13.694;2022-10-24T02:49:02;9.07;;;6.13;;
22240;SDS011;11289;52.524;13.694;2022-10-24T02:51:34;9.23;;;6.22;;
22240;SDS011;11289;52.524;13.694;2022-10-24T02:56:40;9.20;;;6.55;;
22240;SDS011;11289;52.524;13.694;2022-10-24T02:59:10;7.65;;;6.55;;
22240;SDS011;11289;52.524;13.694;2022-10-24T03:01:35;12.77;;;7.13;;
22240;SDS011;11289;52.524;13.694;2022-10-24T03:04:07;12.35;;;7.07;;
22240;SDS011;11289;52.524;13.694;2022-10-24T03:06:32;9.02;;;6.97;;
22240;SDS011;11289;52.524;13.694;2022-10-24T03:08:58;10.85;;;7.13;;
22240;SDS011;11289;52.524;13.694;2022-10-24T03:11:26;11.27;;;6.90;;
22240;SDS011;11289;52.524;13.694;2022-10-24T03:13:51;9.77;;;7.47;;
22240;SDS011;11289;52.524;13.694;2022-10-24T03:16:17;13.13;;;7.93;;
22240;SDS011;11289;52.524;13.694;2022-10-24T03:18:43;9.82;;;7.07;;
22240;SDS011;11289;52.524;13.694;2022-10-24T03:21:08;13.93;;;8.38;;
22240;SDS011;11289;52.524;13.694;2022-10-24T03:23:33;9.85;;;7.28;;
22240;SDS011;11289;52.524;13.694;2022-10-24T03:26:04;10.88;;;7.05;;
22240;SDS011;11289;52.524;13.694;2022-10-24T03:28:29;7.60;;;6.30;;
22240;SDS011;11289;52.524;13.694;2022-10-24T03:30:55;15.65;;;7.30;;
22240;SDS011;11289;52.524;13.694;2022-10-24T03:33:20;11.73;;;7.28;;
22240;SDS011;11289;52.524;13.694;2022-10-24T03:35:49;8.93;;;6.68;;
22240;SDS011;11289;52.524;13.694;2022-10-24T03:38:15;10.52;;;7.45;;
22240;SDS011;11289;52.524;13.694;2022-10-24T03:40:41;9.32;;;6.53;;
22240;SDS011;11289;52.524;13.694;2022-10-24T03:43:08;11.45;;;6.57;;
22240;SDS011;11289;52.524;13.694;2022-10-24T03:45:33;9.27;;;6.55;;
22240;SDS011;11289;52.524;13.694;2022-10-24T03:47:59;9.00;;;6.38;;
22240;SDS011;11289;52.524;13.694;2022-10-24T03:50:24;9.50;;;7.40;;
22240;SDS011;11289;52.524;13.694;2022-10-24T03:52:50;8.10;;;6.28;;
22240;SDS011;11289;52.524;13.694;2022-10-24T03:55:17;8.60;;;5.93;;
22240;SDS011;11289;52.524;13.694;2022-10-24T03:57:43;8.02;;;6.25;;
22240;SDS011;11289;52.524;13.694;2022-10-24T04:00:08;9.07;;;6.30;;
22240;SDS011;11289;52.524;13.694;2022-10-24T04:02:34;8.65;;;5.80;;
22240;SDS011;11289;52.524;13.694;2022-10-24T04:04:59;9.80;;;6.63;;
22240;SDS011;11289;52.524;13.694;2022-10-24T04:07:25;9.38;;;6.10;;
22240;SDS011;11289;52.524;13.694;2022-10-24T04:09:50;10.95;;;6.45;;
22240;SDS011;11289;52.524;13.694;2022-10-24T04:12:16;10.27;;;6.60;;
22240;SDS011;11289;52.524;13.694;2022-10-24T04:14:41;8.95;;;6.40;;
22240;SDS011;11289;52.524;13.694;2022-10-24T04:17:06;10.30;;;7.28;;
22240;SDS011;11289;52.524;13.694;2022-10-24T04:19:32;15.52;;;8.32;;
22240;SDS011;11289;52.524;13.694;2022-10-24T04:21:57;19.80;;;11.80;;
22240;SDS011;11289;52.524;13.694;2022-10-24T04:24:23;22.00;;;13.07;;
22240;SDS011;11289;52.524;13.694;2022-10-24T04:26:48;27.20;;;16.08;;
22240;SDS011;11289;52.524;13.694;2022-10-24T04:29:14;27.20;;;16.98;;
22240;SDS011;11289;52.524;13.694;2022-10-24T04:31:39;29.08;;;17.85;;
22240;SDS011;11289;52.524;13.694;2022-10-24T04:34:05;31.73;;;20.20;;
22240;SDS011;11289;52.524;13.694;2022-10-24T04:36:31;29.80;;;20.58;;
22240;SDS011;11289;52.524;13.694;2022-10-24T04:38:57;31.23;;;21.90;;
22240;SDS011;11289;52.524;13.694;2022-10-24T04:41:22;33.97;;;21.60;;
22240;SDS011;11289;52.524;13.694;2022-10-24T04:43:47;27.90;;;20.27;;
22240;SDS011;11289;52.524;13.694;2022-10-24T04:46:13;24.70;;;18.90;;
22240;SDS011;11289;52.524;13.694;2022-10-24T04:48:40;19.50;;;15.60;;
22240;SDS011;11289;52.524;13.694;2022-10-24T04:51:06;19.77;;;14.50;;
22240;SDS011;11289;52.524;13.694;2022-10-24T04:53:31;18.67;;;13.05;;
22240;SDS011;11289;52.524;13.694;2022-10-24T04:55:57;16.20;;;12.10;;
22240;SDS011;11289;52.524;13.694;2022-10-24T04:58:22;15.88;;;12.27;;
22240;SDS011;11289;52.524;13.694;2022-10-24T05:00:48;14.80;;;11.57;;
22240;SDS011;11289;52.524;13.694;2022-10-24T05:03:16;15.57;;;11.73;;
22240;SDS011;11289;52.524;13.694;2022-10-24T05:05:43;15.70;;;12.68;;
22240;SDS011;11289;52.524;13.694;2022-10-24T05:08:08;14.75;;;12.20;;
22240;SDS011;11289;52.524;13.694;2022-10-24T05:10:34;13.32;;;11.88;;
22240;SDS011;11289;52.524;13.694;2022-10-24T05:12:59;14.55;;;11.80;;
22240;SDS011;11289;52.524;13.694;2022-10-24T05:15:25;13.95;;;11.93;;
22240;SDS011;11289;52.524;13.694;2022-10-24T05:17:50;12.30;;;10.35;;
22240;SDS011;11289;52.524;13.694;2022-10-24T05:20:15;9.98;;;8.05;;
22240;SDS011;11289;52.524;13.694;2022-10-24T05:22:41;11.93;;;6.80;;
22240;SDS011;11289;52.524;13.694;2022-10-24T05:25:07;10.23;;;6.82;;
22240;SDS011;11289;52.524;13.694;2022-10-24T05:27:32;10.55;;;5.88;;
22240;SDS011;11289;52.524;13.694;2022-10-24T05:29:58;7.60;;;5.78;;
22240;SDS011;11289;52.524;13.694;2022-10-24T05:32:23;11.57;;;6.05;;
22240;SDS011;11289;52.524;13.694;2022-10-24T05:34:49;7.22;;;5.43;;
22240;SDS011;11289;52.524;13.694;2022-10-24T05:37:15;8.25;;;4.85;;
22240;SDS011;11289;52.524;13.694;2022-10-24T05:39:41;6.97;;;5.43;;
22240;SDS011;11289;52.524;13.694;2022-10-24T05:42:07;9.68;;;5.78;;
22240;SDS011;11289;52.524;13.694;2022-10-24T05:44:32;6.47;;;4.47;;
22240;SDS011;11289;52.524;13.694;2022-10-24T05:47:00;7.60;;;5.43;;
22240;SDS011;11289;52.524;13.694;2022-10-24T05:49:28;8.07;;;4.57;;
22240;SDS011;11289;52.524;13.694;2022-10-24T05:51:53;10.60;;;4.90;;
22240;SDS011;11289;52.524;13.694;2022-10-24T05:54:19;6.40;;;4.82;;
22240;SDS011;11289;52.524;13.694;2022-10-24T05:56:44;8.00;;;5.07;;
22240;SDS011;11289;52.524;13.694;2022-10-24T05:59:09;12.95;;;5.25;;
22240;SDS011;11289;52.524;13.694;2022-10-24T06:01:35;7.82;;;5.35;;
22240;SDS011;11289;52.524;13.694;2022-10-24T06:04:00;7.88;;;5.15;;
22240;SDS011;11289;52.524;13.694;2022-10-24T06:06:26;5.95;;;4.43;;
22240;SDS011;11289;52.524;13.694;2022-10-24T06:08:51;8.52;;;4.85;;
22240;SDS011;11289;52.524;13.694;2022-10-24T06:11:17;7.82;;;4.60;;
22240;SDS011;11289;52.524;13.694;2022-10-24T06:13:43;8.55;;;5.03;;
22240;SDS011;11289;52.524;13.694;2022-10-24T06:16:09;6.35;;;4.13;;
22240;SDS011;11289;52.524;13.694;2022-10-24T06:18:36;6.13;;;4.05;;
22240;SDS011;11289;52.524;13.694;2022-10-24T06:21:03;5.25;;;3.72;;
22240;SDS011;11289;52.524;13.694;2022-10-24T06:23:31;7.30;;;3.80;;
22240;SDS011;11289;52.524;13.694;2022-10-24T06:25:57;6.20;;;3.95;;
22240;SDS011;11289;52.524;13.694;2022-10-24T06:28:22;6.90;;;3.85;;
22240;SDS011;11289;52.524;13.694;2022-10-24T06:30:49;5.65;;;4.18;;
22240;SDS011;11289;52.524;13.694;2022-10-24T06:33:15;8.80;;;4.75;;
22240;SDS011;11289;52.524;13.694;2022-10-24T06:35:42;6.97;;;5.30;;
22240;SDS011;11289;52.524;13.694;2022-10-24T06:38:07;12.05;;;6.85;;
22240;SDS011;11289;52.524;13.694;2022-10-24T06:40:32;13.63;;;7.95;;
22240;SDS011;11289;52.524;13.694;2022-10-24T06:42:58;15.10;;;9.57;;
22240;SDS011;11289;52.524;13.694;2022-10-24T06:45:24;14.65;;;10.82;;
22240;SDS011;11289;52.524;13.694;2022-10-24T06:47:50;12.40;;;9.05;;
22240;SDS011;11289;52.524;13.694;2022-10-24T06:50:15;14.50;;;9.07;;
22240;SDS011;11289;52.524;13.694;2022-10-24T06:52:41;16.10;;;8.35;;
22240;SDS011;11289;52.524;13.694;2022-10-24T06:55:07;9.50;;;7.65;;
22240;SDS011;11289;52.524;13.694;2022-10-24T07:00:45;10.55;;;7.47;;
22240;SDS011;11289;52.524;13.694;2022-10-24T07:03:12;11.02;;;6.07;;
22240;SDS011;11289;52.524;13.694;2022-10-24T07:05:39;7.78;;;5.65;;
22240;SDS011;11289;52.524;13.694;2022-10-24T07:08:04;8.05;;;5.28;;
22240;SDS011;11289;52.524;13.694;2022-10-24T07:10:30;8.52;;;5.38;;
22240;SDS011;11289;52.524;13.694;2022-10-24T07:12:55;7.78;;;5.65;;
22240;SDS011;11289;52.524;13.694;2022-10-24T07:15:21;9.38;;;5.50;;
22240;SDS011;11289;52.524;13.694;2022-10-24T07:17:46;11.20;;;6.15;;
22240;SDS011;11289;52.524;13.694;2022-10-24T07:20:12;6.90;;;5.18;;
22240;SDS011;11289;52.524;13.694;2022-10-24T07:22:38;7.35;;;5.25;;
22240;SDS011;11289;52.524;13.694;2022-10-24T07:25:04;7.28;;;5.10;;
22240;SDS011;11289;52.524;13.694;2022-10-24T07:27:31;11.88;;;5.13;;
22240;SDS011;11289;52.524;13.694;2022-10-24T07:29:56;9.35;;;4.82;;
22240;SDS011;11289;52.524;13.694;2022-10-24T07:32:22;8.80;;;4.97;;
22240;SDS011;11289;52.524;13.694;2022-10-24T07:34:47;6.00;;;4.47;;
22240;SDS011;11289;52.524;13.694;2022-10-24T07:37:13;9.05;;;4.38;;
22240;SDS011;11289;52.524;13.694;2022-10-24T07:39:39;12.05;;;4.55;;
22240;SDS011;11289;52.524;13.694;2022-10-24T07:42:05;10.02;;;4.95;;
22240;SDS011;11289;52.524;13.694;2022-10-24T07:44:30;7.43;;;4.25;;
22240;SDS011;11289;52.524;13.694;2022-10-24T07:46:56;7.90;;;4.60;;
22240;SDS011;11289;52.524;13.694;2022-10-24T07:49:22;7.57;;;3.97;;
22240;SDS011;11289;52.524;13.694;2022-10-24T07:51:47;7.07;;;4.20;;
22240;SDS011;11289;52.524;13.694;2022-10-24T07:54:13;10.32;;;5.20;;
22240;SDS011;11289;52.524;13.694;2022-10-24T07:56:38;8.77;;;4.38;;
22240;SDS011;11289;52.524;13.694;2022-10-24T07:59:04;10.18;;;3.88;;
22240;SDS011;11289;52.524;13.694;2022-10-24T08:01:29;7.78;;;3.97;;
22240;SDS011;11289;52.524;13.694;2022-10-24T08:03:55;8.50;;;4.72;;
22240;SDS011;11289;52.524;13.694;2022-10-24T08:06:22;10.48;;;4.40;;
22240;SDS011;11289;52.524;13.694;2022-10-24T08:08:49;8.50;;;4.50;;
22240;SDS011;11289;52.524;13.694;2022-10-24T08:11:17;8.77;;;4.47;;
22240;SDS011;11289;52.524;13.694;2022-10-24T08:13:45;6.80;;;3.67;;
22240;SDS011;11289;52.524;13.694;2022-10-24T08:16:11;10.40;;;4.10;;
22240;SDS011;11289;52.524;13.694;2022-10-24T08:18:39;10.60;;;4.30;;
22240;SDS011;11289;52.524;13.694;2022-10-24T08:21:05;7.43;;;4.25;;
22240;SDS011;11289;52.524;13.694;2022-10-24T08:23:33;8.82;;;4.25;;
22240;SDS011;11289;52.524;13.694;2022-10-24T08:25:59;12.43;;;4.43;;
22240;SDS011;11289;52.524;13.694;2022-10-24T08:28:28;7.90;;;3.92;;
22240;SDS011;11289;52.524;13.694;2022-10-24T08:30:57;9.60;;;3.90;;
22240;SDS011;11289;52.524;13.694;2022-10-24T08:33:24;7.93;;;3.75;;
22240;SDS011;11289;52.524;13.694;2022-10-24T08:35:50;7.85;;;3.58;;
22240;SDS011;11289;52.524;13.694;2022-10-24T08:38:18;7.75;;;3.13;;
22240;SDS011;11289;52.524;13.694;2022-10-24T08:40:46;8.85;;;3.90;;
22240;SDS011;11289;52.524;13.694;2022-10-24T08:43:15;12.35;;;4.10;;
22240;SDS011;11289;52.524;13.694;2022-10-24T08:45:49;11.50;;;4.32;;
22240;SDS011;11289;52.524;13.694;2022-10-24T08:48:43;9.48;;;3.85;;
22240;SDS011;11289;52.524;13.694;2022-10-24T08:51:24;5.72;;;3.15;;
22240;SDS011;11289;52.524;13.694;2022-10-24T08:54:00;7.03;;;3.55;;
22240;SDS011;11289;52.524;13.694;2022-10-24T08:56:28;11.52;;;3.80;;
22240;SDS011;11289;52.524;13.694;2022-10-24T08:58:58;10.85;;;3.90;;
22240;SDS011;11289;52.524;13.694;2022-10-24T09:04:21;9.65;;;3.38;;
22240;SDS011;11289;52.524;13.694;2022-10-24T09:06:49;8.43;;;3.13;;
22240;SDS011;11289;52.524;13.694;2022-10-24T09:09:28;7.80;;;3.78;;
22240;SDS011;11289;52.524;13.694;2022-10-24T09:12:05;7.72;;;2.92;;
22240;SDS011;11289;52.524;13.694;2022-10-24T09:14:36;6.72;;;3.13;;
22240;SDS011;11289;52.524;13.694;2022-10-24T09:19:45;10.40;;;3.50;;
22240;SDS011;11289;52.524;13.694;2022-10-24T09:22:20;9.27;;;2.97;;
22240;SDS011;11289;52.524;13.694;2022-10-24T09:24:53;5.00;;;2.40;;
22240;SDS011;11289;52.524;13.694;2022-10-24T09:27:31;8.25;;;3.22;;
22240;SDS011;11289;52.524;13.694;2022-10-24T09:29:59;8.75;;;3.33;;
22240;SDS011;11289;52.524;13.694;2022-10-24T09:32:30;9.05;;;3.13;;
22240;SDS011;11289;52.524;13.694;2022-10-24T09:34:58;10.30;;;3.17;;
22240;SDS011;11289;52.524;13.694;2022-10-24T09:40:11;6.90;;;2.88;;
22240;SDS011;11289;52.524;13.694;2022-10-24T09:42:51;9.70;;;2.90;;
22240;SDS011;11289;52.524;13.694;2022-10-24T09:48:04;7.40;;;2.70;;
22240;SDS011;11289;52.524;13.694;2022-10-24T09:50:39;6.22;;;3.38;;
22240;SDS011;11289;52.524;13.694;2022-10-24T09:53:09;9.90;;;3.53;;
22240;SDS011;11289;52.524;13.694;2022-10-24T09:55:50;9.77;;;2.60;;
22240;SDS011;11289;52.524;13.694;2022-10-24T09:58:18;5.93;;;2.47;;
22240;SDS011;11289;52.524;13.694;2022-10-24T10:03:40;6.13;;;2.20;;
22240;SDS011;11289;52.524;13.694;2022-10-24T10:06:19;7.65;;;2.97;;
22240;SDS011;11289;52.524;13.694;2022-10-24T10:08:49;5.78;;;2.08;;
22240;SDS011;11289;52.524;13.694;2022-10-24T10:11:22;10.85;;;2.53;;
22240;SDS011;11289;52.524;13.694;2022-10-24T10:13:57;9.02;;;2.47;;
22240;SDS011;11289;52.524;13.694;2022-10-24T10:16:32;8.98;;;2.35;;
22240;SDS011;11289;52.524;13.694;2022-10-24T10:19:14;6.78;;;2.45;;
22240;SDS011;11289;52.524;13.694;2022-10-24T10:24:35;6.45;;;1.85;;
22240;SDS011;11289;52.524;13.694;2022-10-24T10:38:14;9.40;;;2.80;;
22240;SDS011;11289;52.524;13.694;2022-10-24T10:41:02;6.47;;;2.35;;
22240;SDS011;11289;52.524;13.694;2022-10-24T10:49:18;7.13;;;1.52;;
22240;SDS011;11289;52.524;13.694;2022-10-24T10:51:50;5.90;;;2.15;;
22240;SDS011;11289;52.524;13.694;2022-10-24T10:57:12;5.82;;;1.98;;
22240;SDS011;11289;52.524;13.694;2022-10-24T10:59:47;7.90;;;2.05;;
22240;SDS011;11289;52.524;13.694;2022-10-24T11:08:30;7.38;;;1.92;;
22240;SDS011;11289;52.524;13.694;2022-10-24T11:11:05;10.68;;;2.10;;
22240;SDS011;11289;52.524;13.694;2022-10-24T11:13:47;6.65;;;1.80;;
22240;SDS011;11289;52.524;13.694;2022-10-24T11:16:18;7.45;;;2.33;;
22240;SDS011;11289;52.524;13.694;2022-10-24T11:18:59;10.23;;;1.55;;
22240;SDS011;11289;52.524;13.694;2022-10-24T11:21:30;8.95;;;2.22;;
22240;SDS011;11289;52.524;13.694;2022-10-24T11:29:39;7.07;;;2.43;;
22240;SDS011;11289;52.524;13.694;2022-10-24T11:34:41;9.00;;;1.70;;
22240;SDS011;11289;52.524;13.694;2022-10-24T11:37:19;7.95;;;2.22;;
22240;SDS011;11289;52.524;13.694;2022-10-24T11:39:56;7.80;;;1.90;;
22240;SDS011;11289;52.524;13.694;2022-10-24T11:45:17;9.07;;;1.95;;
22240;SDS011;11289;52.524;13.694;2022-10-24T11:47:55;10.07;;;1.80;;
22240;SDS011;11289;52.524;13.694;2022-10-24T11:50:25;7.40;;;1.45;;
22240;SDS011;11289;52.524;13.694;2022-10-24T11:53:05;9.73;;;1.75;;
22240;SDS011;11289;52.524;13.694;2022-10-24T11:55:43;3.97;;;2.05;;
22240;SDS011;11289;52.524;13.694;2022-10-24T11:58:14;7.43;;;2.00;;
22240;SDS011;11289;52.524;13.694;2022-10-24T12:03:20;7.32;;;1.50;;
22240;SDS011;11289;52.524;13.694;2022-10-24T12:11:42;8.80;;;1.85;;
22240;SDS011;11289;52.524;13.694;2022-10-24T12:19:16;7.13;;;2.08;;
22240;SDS011;11289;52.524;13.694;2022-10-24T12:21:44;9.85;;;2.05;;
22240;SDS011;11289;52.524;13.694;2022-10-24T12:24:20;10.07;;;1.90;;
22240;SDS011;11289;52.524;13.694;2022-10-24T12:26:52;5.72;;;1.70;;
22240;SDS011;11289;52.524;13.694;2022-10-24T12:29:21;9.50;;;2.60;;
22240;SDS011;11289;52.524;13.694;2022-10-24T12:31:49;5.00;;;1.88;;
22240;SDS011;11289;52.524;13.694;2022-10-24T12:39:48;3.47;;;1.60;;
22240;SDS011;11289;52.524;13.694;2022-10-24T12:44:43;6.05;;;1.73;;
22240;SDS011;11289;52.524;13.694;2022-10-24T12:47:27;7.10;;;1.55;;
22240;SDS011;11289;52.524;13.694;2022-10-24T12:50:48;7.43;;;2.30;;
22240;SDS011;11289;52.524;13.694;2022-10-24T12:53:15;8.27;;;1.70;;
22240;SDS011;11289;52.524;13.694;2022-10-24T12:58:20;5.22;;;1.60;;
22240;SDS011;11289;52.524;13.694;2022-10-24T13:00:57;8.88;;;2.00;;
22240;SDS011;11289;52.524;13.694;2022-10-24T13:23:11;6.78;;;2.03;;
22240;SDS011;11289;52.524;13.694;2022-10-24T13:25:44;9.20;;;1.73;;
22240;SDS011;11289;52.524;13.694;2022-10-24T13:30:41;6.38;;;1.98;;
22240;SDS011;11289;52.524;13.694;2022-10-24T13:34:06;8.50;;;1.90;;
22240;SDS011;11289;52.524;13.694;2022-10-24T13:35:55;7.88;;;2.10;;
22240;SDS011;11289;52.524;13.694;2022-10-24T13:38:50;6.70;;;2.00;;
22240;SDS011;11289;52.524;13.694;2022-10-24T13:41:24;10.60;;;2.47;;
22240;SDS011;11289;52.524;13.694;2022-10-24T13:43:55;8.38;;;1.80;;
22240;SDS011;11289;52.524;13.694;2022-10-24T13:46:30;9.73;;;3.63;;
22240;SDS011;11289;52.524;13.694;2022-10-24T13:49:02;9.85;;;3.58;;
22240;SDS011;11289;52.524;13.694;2022-10-24T13:51:36;6.10;;;2.65;;
22240;SDS011;11289;52.524;13.694;2022-10-24T13:54:09;8.25;;;2.20;;
22240;SDS011;11289;52.524;13.694;2022-10-24T13:56:41;9.35;;;1.92;;
22240;SDS011;11289;52.524;13.694;2022-10-24T13:59:25;7.03;;;2.35;;
22240;SDS011;11289;52.524;13.694;2022-10-24T14:01:59;6.63;;;1.55;;
22240;SDS011;11289;52.524;13.694;2022-10-24T14:04:28;5.43;;;1.80;;
22240;SDS011;11289;52.524;13.694;2022-10-24T14:07:01;8.65;;;1.75;;
22240;SDS011;11289;52.524;13.694;2022-10-24T14:09:30;6.10;;;1.95;;
22240;SDS011;11289;52.524;13.694;2022-10-24T14:12:04;10.82;;;2.75;;
22240;SDS011;11289;52.524;13.694;2022-10-24T14:14:36;11.07;;;5.13;;
22240;SDS011;11289;52.524;13.694;2022-10-24T14:17:15;9.52;;;3.63;;
22240;SDS011;11289;52.524;13.694;2022-10-24T14:19:48;5.05;;;2.13;;
22240;SDS011;11289;52.524;13.694;2022-10-24T14:22:28;7.18;;;1.73;;
22240;SDS011;11289;52.524;13.694;2022-10-24T14:25:00;11.00;;;2.83;;
22240;SDS011;11289;52.524;13.694;2022-10-24T14:27:26;5.90;;;2.03;;
22240;SDS011;11289;52.524;13.694;2022-10-24T14:32:26;8.75;;;2.25;;
22240;SDS011;11289;52.524;13.694;2022-10-24T14:34:53;6.78;;;2.10;;
22240;SDS011;11289;52.524;13.694;2022-10-24T14:37:28;5.45;;;2.00;;
22240;SDS011;11289;52.524;13.694;2022-10-24T14:39:56;5.85;;;1.88;;
22240;SDS011;11289;52.524;13.694;2022-10-24T14:42:22;9.13;;;1.90;;
22240;SDS011;11289;52.524;13.694;2022-10-24T14:44:49;6.07;;;1.92;;
22240;SDS011;11289;52.524;13.694;2022-10-24T14:47:34;5.18;;;1.67;;
22240;SDS011;11289;52.524;13.694;2022-10-24T14:50:02;9.48;;;2.40;;
22240;SDS011;11289;52.524;13.694;2022-10-24T14:52:58;5.43;;;1.83;;
22240;SDS011;11289;52.524;13.694;2022-10-24T14:55:24;9.82;;;2.80;;
22240;SDS011;11289;52.524;13.694;2022-10-24T14:57:50;16.77;;;9.48;;
22240;SDS011;11289;52.524;13.694;2022-10-24T15:00:18;9.88;;;3.95;;
22240;SDS011;11289;52.524;13.694;2022-10-24T15:02:49;8.98;;;3.38;;
22240;SDS011;11289;52.524;13.694;2022-10-24T15:10:36;12.30;;;2.97;;
22240;SDS011;11289;52.524;13.694;2022-10-24T15:18:21;5.45;;;2.35;;
22240;SDS011;11289;52.524;13.694;2022-10-24T15:21:02;9.85;;;2.40;;
22240;SDS011;11289;52.524;13.694;2022-10-24T15:23:31;6.18;;;2.78;;
22240;SDS011;11289;52.524;13.694;2022-10-24T15:26:10;5.47;;;2.08;;
22240;SDS011;11289;52.524;13.694;2022-10-24T15:28:47;7.07;;;2.08;;
22240;SDS011;11289;52.524;13.694;2022-10-24T15:31:16;8.50;;;2.83;;
22240;SDS011;11289;52.524;13.694;2022-10-24T15:33:44;8.32;;;2.75;;
22240;SDS011;11289;52.524;13.694;2022-10-24T15:36:30;8.63;;;3.20;;
22240;SDS011;11289;52.524;13.694;2022-10-24T15:39:04;7.90;;;2.97;;
22240;SDS011;11289;52.524;13.694;2022-10-24T15:41:35;9.93;;;2.92;;
22240;SDS011;11289;52.524;13.694;2022-10-24T15:44:28;8.57;;;3.67;;
22240;SDS011;11289;52.524;13.694;2022-10-24T15:46:54;7.53;;;3.58;;
22240;SDS011;11289;52.524;13.694;2022-10-24T15:49:20;33.00;;;21.48;;
22240;SDS011;11289;52.524;13.694;2022-10-24T15:51:46;16.98;;;10.93;;
22240;SDS011;11289;52.524;13.694;2022-10-24T15:54:14;8.68;;;4.50;;
22240;SDS011;11289;52.524;13.694;2022-10-24T15:56:41;6.60;;;3.20;;
22240;SDS011;11289;52.524;13.694;2022-10-24T15:59:07;8.07;;;2.67;;
22240;SDS011;11289;52.524;13.694;2022-10-24T16:01:36;9.35;;;2.90;;
22240;SDS011;11289;52.524;13.694;2022-10-24T16:04:08;12.90;;;5.28;;
22240;SDS011;11289;52.524;13.694;2022-10-24T16:06:34;6.47;;;3.35;;
22240;SDS011;11289;52.524;13.694;2022-10-24T16:09:05;7.60;;;2.70;;
22240;SDS011;11289;52.524;13.694;2022-10-24T16:11:37;4.82;;;2.20;;
22240;SDS011;11289;52.524;13.694;2022-10-24T16:14:02;9.02;;;3.10;;
22240;SDS011;11289;52.524;13.694;2022-10-24T16:16:28;13.13;;;3.58;;
22240;SDS011;11289;52.524;13.694;2022-10-24T16:21:39;9.15;;;2.97;;
22240;SDS011;11289;52.524;13.694;2022-10-24T16:27:02;8.27;;;3.42;;
22240;SDS011;11289;52.524;13.694;2022-10-24T16:32:13;7.68;;;2.80;;
22240;SDS011;11289;52.524;13.694;2022-10-24T16:34:47;8.43;;;2.53;;
22240;SDS011;11289;52.524;13.694;2022-10-24T16:37:14;5.50;;;2.33;;
22240;SDS011;11289;52.524;13.694;2022-10-24T16:39:49;8.98;;;2.20;;
22240;SDS011;11289;52.524;13.694;2022-10-24T16:42:14;6.15;;;2.47;;
22240;SDS011;11289;52.524;13.694;2022-10-24T16:44:40;10.25;;;2.20;;
22240;SDS011;11289;52.524;13.694;2022-10-24T16:47:06;5.00;;;2.03;;
22240;SDS011;11289;52.524;13.694;2022-10-24T16:49:33;5.93;;;2.22;;
22240;SDS011;11289;52.524;13.694;2022-10-24T16:51:59;5.28;;;2.65;;
22240;SDS011;11289;52.524;13.694;2022-10-24T16:54:24;6.78;;;2.60;;
22240;SDS011;11289;52.524;13.694;2022-10-24T16:56:50;6.15;;;2.00;;
22240;SDS011;11289;52.524;13.694;2022-10-24T16:59:16;4.30;;;1.92;;
22240;SDS011;11289;52.524;13.694;2022-10-24T17:01:57;6.60;;;1.73;;
22240;SDS011;11289;52.524;13.694;2022-10-24T17:04:23;2.75;;;1.48;;
22240;SDS011;11289;52.524;13.694;2022-10-24T17:06:55;5.25;;;1.88;;
22240;SDS011;11289;52.524;13.694;2022-10-24T17:09:21;7.32;;;2.03;;
22240;SDS011;11289;52.524;13.694;2022-10-24T17:11:46;4.65;;;2.30;;
22240;SDS011;11289;52.524;13.694;2022-10-24T17:14:12;7.05;;;2.00;;
22240;SDS011;11289;52.524;13.694;2022-10-24T17:16:38;7.57;;;1.77;;
22240;SDS011;11289;52.524;13.694;2022-10-24T17:19:04;8.63;;;4.80;;